createdAt,value
2023-04-09T00:02:25.224Z,13.65
2023-04-09T00:04:52.751Z,14.55
2023-04-09T00:07:19.696Z,16.77
2023-04-09T00:09:46.600Z,17.13
2023-04-09T00:12:14.099Z,15.30
2023-04-09T00:14:41.441Z,13.63
2023-04-09T00:17:08.348Z,15.50
2023-04-09T00:19:35.451Z,19.15
2023-04-09T00:22:02.396Z,15.95
2023-04-09T00:24:29.268Z,13.82
2023-04-09T00:26:56.252Z,17.67
2023-04-09T00:29:23.328Z,13.73
2023-04-09T00:31:50.334Z,17.10
2023-04-09T00:34:17.276Z,13.68
2023-04-09T00:36:44.234Z,13.30
2023-04-09T00:39:11.168Z,15.48
2023-04-09T00:41:38.169Z,14.20
2023-04-09T00:44:05.661Z,15.52
2023-04-09T00:46:32.908Z,14.20
2023-04-09T00:48:59.883Z,16.05
2023-04-09T00:51:26.943Z,14.07
2023-04-09T00:53:54.476Z,13.23
2023-04-09T00:56:23.601Z,13.75
2023-04-09T00:58:51.229Z,14.27
2023-04-09T01:01:18.686Z,16.17
2023-04-09T01:03:45.928Z,16.27
2023-04-09T01:06:24.544Z,14.52
2023-04-09T01:09:43.610Z,15.60
2023-04-09T01:12:43.968Z,15.18
2023-04-09T01:15:15.222Z,13.88
2023-04-09T01:17:49.380Z,15.48
2023-04-09T01:20:29.189Z,14.15
2023-04-09T01:23:11.308Z,15.73
2023-04-09T01:26:13.558Z,15.35
2023-04-09T01:28:56.056Z,15.30
2023-04-09T01:31:30.847Z,14.38
2023-04-09T01:33:59.326Z,14.75
2023-04-09T01:36:28.596Z,19.75
2023-04-09T01:38:57.044Z,14.00
2023-04-09T01:41:26.145Z,13.82
2023-04-09T01:43:53.856Z,16.00
2023-04-09T01:46:22.331Z,15.05
2023-04-09T01:48:50.239Z,15.43
2023-04-09T01:51:17.749Z,14.38
2023-04-09T01:53:44.701Z,16.27
2023-04-09T01:56:11.861Z,12.40
2023-04-09T01:58:38.828Z,14.57
2023-04-09T02:01:07.314Z,18.67
2023-04-09T02:03:47.660Z,14.32
2023-04-09T02:06:27.342Z,16.42
2023-04-09T02:08:56.435Z,13.75
2023-04-09T02:11:26.014Z,14.18
2023-04-09T02:13:55.829Z,15.77
2023-04-09T02:16:25.359Z,15.52
2023-04-09T02:18:57.010Z,16.27
2023-04-09T02:21:24.487Z,16.25
2023-04-09T02:23:51.550Z,15.23
2023-04-09T02:26:18.551Z,14.60
2023-04-09T02:28:45.795Z,20.20
2023-04-09T02:31:15.306Z,16.00
2023-04-09T02:33:42.710Z,16.73
2023-04-09T02:36:13.420Z,17.98
2023-04-09T02:38:43.585Z,16.35
2023-04-09T02:41:10.799Z,20.25
2023-04-09T02:43:38.179Z,17.15
2023-04-09T02:46:05.355Z,19.98
2023-04-09T02:48:33.862Z,19.00
2023-04-09T02:51:00.843Z,16.73
2023-04-09T02:53:27.869Z,17.27
2023-04-09T02:55:54.880Z,18.42
2023-04-09T02:58:21.773Z,19.75
2023-04-09T03:00:48.794Z,19.33
2023-04-09T03:03:16.102Z,20.88
2023-04-09T03:05:43.214Z,19.88
2023-04-09T03:08:10.144Z,21.23
2023-04-09T03:10:37.166Z,17.08
2023-04-09T03:13:04.074Z,19.45
2023-04-09T03:15:31.017Z,23.13
2023-04-09T03:17:57.964Z,20.17
2023-04-09T03:20:24.881Z,18.08
2023-04-09T03:22:51.795Z,19.25
2023-04-09T03:25:41.312Z,20.75
2023-04-09T03:28:18.124Z,22.60
2023-04-09T03:30:48.970Z,24.73
2023-04-09T03:33:16.080Z,25.27
2023-04-09T03:35:55.263Z,23.70
2023-04-09T03:38:32.481Z,22.40
2023-04-09T03:41:02.513Z,24.48
2023-04-09T03:43:32.542Z,22.23
2023-04-09T03:46:00.469Z,25.58
2023-04-09T03:48:27.576Z,24.67
2023-04-09T03:50:56.397Z,26.55
2023-04-09T03:53:34.428Z,26.25
2023-04-09T03:56:06.364Z,24.88
2023-04-09T03:58:35.277Z,26.13
2023-04-09T04:01:02.841Z,26.42
2023-04-09T04:03:53.081Z,26.77
2023-04-09T04:06:24.720Z,27.20
2023-04-09T04:09:11.901Z,27.13
2023-04-09T04:11:44.249Z,28.25
2023-04-09T04:14:11.815Z,35.75
2023-04-09T04:16:41.841Z,28.45
2023-04-09T04:19:10.131Z,28.05
2023-04-09T04:21:43.105Z,30.88
2023-04-09T04:24:10.452Z,33.28
2023-04-09T04:26:37.335Z,29.90
2023-04-09T04:29:04.448Z,28.48
2023-04-09T04:31:45.805Z,30.80
2023-04-09T04:34:15.289Z,29.50
2023-04-09T04:36:46.349Z,29.77
2023-04-09T04:39:13.351Z,28.13
2023-04-09T04:41:59.179Z,29.58
2023-04-09T04:44:28.072Z,32.33
2023-04-09T04:47:04.466Z,37.85
2023-04-09T04:49:31.751Z,28.67
2023-04-09T04:52:00.914Z,33.45
2023-04-09T04:54:28.740Z,30.48
2023-04-09T04:56:57.757Z,31.95
2023-04-09T04:59:44.968Z,33.20
2023-04-09T05:02:13.839Z,35.63
2023-04-09T05:05:01.232Z,33.90
2023-04-09T05:07:35.435Z,35.20
2023-04-09T05:10:02.652Z,36.60
2023-04-09T05:12:36.331Z,38.25
2023-04-09T05:15:04.639Z,37.22
2023-04-09T05:17:32.010Z,34.47
2023-04-09T05:20:00.113Z,34.35
2023-04-09T05:22:36.244Z,41.70
2023-04-09T05:25:04.273Z,32.47
2023-04-09T05:27:35.866Z,42.20
2023-04-09T05:30:03.651Z,38.83
2023-04-09T05:32:31.364Z,41.88
2023-04-09T05:34:58.455Z,37.50
2023-04-09T05:37:27.380Z,42.42
2023-04-09T05:39:56.172Z,37.00
2023-04-09T05:42:23.544Z,37.40
2023-04-09T05:44:53.400Z,35.53
2023-04-09T05:47:21.922Z,37.95
2023-04-09T05:50:06.623Z,38.22
2023-04-09T05:52:33.685Z,37.50
2023-04-09T05:55:01.001Z,33.78
2023-04-09T05:57:40.367Z,37.08
2023-04-09T06:00:08.292Z,38.42
2023-04-09T06:02:43.550Z,37.08
2023-04-09T06:05:11.161Z,35.88
2023-04-09T06:07:38.596Z,38.28
2023-04-09T06:10:06.247Z,38.97
2023-04-09T06:12:35.471Z,41.38
2023-04-09T06:15:05.581Z,38.17
2023-04-09T06:17:33.279Z,38.28
2023-04-09T06:20:00.321Z,35.35
2023-04-09T06:22:27.264Z,34.45
2023-04-09T06:24:54.134Z,37.33
2023-04-09T06:27:22.172Z,35.83
2023-04-09T06:29:49.157Z,39.03
2023-04-09T06:32:17.157Z,35.75
2023-04-09T06:34:44.248Z,37.13
2023-04-09T06:37:11.205Z,38.40
2023-04-09T06:39:40.413Z,39.92
2023-04-09T06:42:09.389Z,39.53
2023-04-09T06:44:59.531Z,36.95
2023-04-09T06:47:26.564Z,35.30
2023-04-09T06:49:53.601Z,36.63
2023-04-09T06:52:20.729Z,38.78
2023-04-09T06:54:47.728Z,35.97
2023-04-09T06:57:14.700Z,37.80
2023-04-09T06:59:41.596Z,34.70
2023-04-09T07:02:09.164Z,38.35
2023-04-09T07:04:36.476Z,34.90
2023-04-09T07:07:03.637Z,37.70
2023-04-09T07:09:31.586Z,37.95
2023-04-09T07:11:58.556Z,37.58
2023-04-09T07:14:25.433Z,39.45
2023-04-09T07:16:52.486Z,40.03
2023-04-09T07:19:19.409Z,42.55
2023-04-09T07:21:46.443Z,40.28
2023-04-09T07:24:13.399Z,37.47
2023-04-09T07:26:40.531Z,39.58
2023-04-09T07:29:07.931Z,37.55
2023-04-09T07:31:36.095Z,34.97
2023-04-09T07:34:04.169Z,32.55
2023-04-09T07:36:31.848Z,33.03
2023-04-09T07:38:58.872Z,33.78
2023-04-09T07:41:25.988Z,36.45
2023-04-09T07:43:52.870Z,39.03
2023-04-09T07:46:21.820Z,36.78
2023-04-09T07:48:50.212Z,34.80
2023-04-09T07:51:17.570Z,33.28
2023-04-09T07:53:44.620Z,34.13
2023-04-09T07:56:12.253Z,34.25
2023-04-09T07:58:39.218Z,34.88
2023-04-09T08:01:06.435Z,33.95
2023-04-09T08:03:33.651Z,34.92
2023-04-09T08:06:01.337Z,32.13
2023-04-09T08:08:29.102Z,34.90
2023-04-09T08:10:56.261Z,33.13
2023-04-09T08:13:26.207Z,33.20
2023-04-09T08:15:53.154Z,25.20
2023-04-09T08:18:20.177Z,32.45
2023-04-09T08:20:47.285Z,30.80
2023-04-09T08:23:14.182Z,29.27
2023-04-09T08:25:41.348Z,36.45
2023-04-09T08:28:08.596Z,30.88
2023-04-09T08:30:35.758Z,30.70
2023-04-09T08:33:03.220Z,29.98
2023-04-09T08:35:33.336Z,24.60
2023-04-09T08:38:00.322Z,27.27
2023-04-09T08:40:27.277Z,28.23
2023-04-09T08:42:58.884Z,26.67
2023-04-09T08:45:25.895Z,26.45
2023-04-09T08:47:53.264Z,30.10
2023-04-09T08:50:20.680Z,25.00
2023-04-09T08:52:48.609Z,23.90
2023-04-09T08:55:15.870Z,24.80
2023-04-09T08:57:43.275Z,15.00
2023-04-09T09:00:11.029Z,26.38
2023-04-09T09:02:39.474Z,27.35
2023-04-09T09:05:07.433Z,21.92
2023-04-09T09:07:34.587Z,20.10
2023-04-09T09:10:05.067Z,22.77
2023-04-09T09:12:32.704Z,22.25
2023-04-09T09:14:59.820Z,22.27
2023-04-09T09:17:26.794Z,21.95
2023-04-09T09:19:54.036Z,19.48
2023-04-09T09:22:21.069Z,20.55
2023-04-09T09:24:52.422Z,20.20
2023-04-09T09:27:32.769Z,20.88
2023-04-09T09:30:01.254Z,23.55
2023-04-09T09:32:28.789Z,17.05
2023-04-09T09:35:03.504Z,28.35
2023-04-09T09:37:31.375Z,27.67
2023-04-09T09:39:59.513Z,18.13
2023-04-09T09:42:27.566Z,16.13
2023-04-09T09:44:56.096Z,25.00
2023-04-09T09:47:25.251Z,25.00
2023-04-09T09:49:52.680Z,15.18
2023-04-09T09:52:26.172Z,15.88
2023-04-09T09:54:55.006Z,12.80
2023-04-09T09:57:26.123Z,22.75
2023-04-09T09:59:59.422Z,23.58
2023-04-09T10:02:30.979Z,22.85
2023-04-09T10:05:00.993Z,29.38
2023-04-09T10:07:28.749Z,27.13
2023-04-09T10:09:57.384Z,35.75
2023-04-09T10:12:26.361Z,28.27
2023-04-09T10:14:55.758Z,28.17
2023-04-09T10:17:22.808Z,35.97
2023-04-09T10:20:07.653Z,48.47
2023-04-09T10:22:36.207Z,30.80
2023-04-09T10:25:04.629Z,36.58
2023-04-09T10:27:31.685Z,30.92
2023-04-09T10:30:00.289Z,34.33
2023-04-09T10:32:28.433Z,64.25
2023-04-09T10:35:01.784Z,41.97
2023-04-09T10:37:28.926Z,44.22
2023-04-09T10:39:57.773Z,42.03
2023-04-09T10:42:32.725Z,44.85
2023-04-09T10:45:12.332Z,32.70
2023-04-09T10:47:41.396Z,31.05
2023-04-09T10:50:28.192Z,29.48
2023-04-09T10:52:59.677Z,20.55
2023-04-09T10:55:39.814Z,21.33
2023-04-09T10:58:11.311Z,16.55
2023-04-09T11:00:41.482Z,22.65
2023-04-09T11:03:24.904Z,21.98
2023-04-09T11:05:52.819Z,19.83
2023-04-09T11:08:19.996Z,20.50
2023-04-09T11:10:49.764Z,21.35
2023-04-09T11:13:20.069Z,22.65
2023-04-09T11:15:47.219Z,21.30
2023-04-09T11:18:25.845Z,21.60
2023-04-09T11:21:04.299Z,22.40
2023-04-09T11:23:32.990Z,21.70
2023-04-09T11:26:00.067Z,24.30
2023-04-09T11:28:27.812Z,19.73
2023-04-09T11:30:54.888Z,20.92
2023-04-09T11:33:22.434Z,22.63
2023-04-09T11:35:51.048Z,20.40
2023-04-09T11:38:18.320Z,20.55
2023-04-09T11:40:48.658Z,16.45
2023-04-09T11:43:22.420Z,18.95
2023-04-09T11:45:49.697Z,18.10
2023-04-09T11:48:18.596Z,16.75
2023-04-09T11:50:46.707Z,15.48
2023-04-09T11:53:31.937Z,17.73
2023-04-09T11:55:59.052Z,13.65
2023-04-09T11:58:26.602Z,15.00
2023-04-09T12:00:58.658Z,16.85
2023-04-09T12:03:31.147Z,14.45
2023-04-09T12:06:01.681Z,15.82
2023-04-09T12:08:28.731Z,14.40
2023-04-09T12:10:55.633Z,11.18
2023-04-09T12:13:32.434Z,12.75
2023-04-09T12:16:02.063Z,15.30
2023-04-09T12:18:29.158Z,15.48
2023-04-09T12:20:56.092Z,13.52
2023-04-09T12:23:23.035Z,15.23
2023-04-09T12:25:50.084Z,14.82
2023-04-09T12:28:18.256Z,15.82
2023-04-09T12:30:46.338Z,12.15
2023-04-09T12:33:13.405Z,16.88
2023-04-09T12:35:40.611Z,14.05
2023-04-09T12:38:07.793Z,13.85
2023-04-09T12:40:37.513Z,14.05
2023-04-09T12:43:04.867Z,17.00
2023-04-09T12:45:33.570Z,12.73
2023-04-09T12:48:00.669Z,15.50
2023-04-09T12:50:28.385Z,13.43
2023-04-09T12:52:55.437Z,12.07
2023-04-09T12:55:22.519Z,11.18
2023-04-09T12:57:51.311Z,13.52
2023-04-09T13:00:18.445Z,9.23
2023-04-09T13:02:45.768Z,12.70
2023-04-09T13:05:13.020Z,11.02
2023-04-09T13:07:42.718Z,11.30
2023-04-09T13:10:10.609Z,12.77
2023-04-09T13:12:37.748Z,9.52
2023-04-09T13:15:05.215Z,15.50
2023-04-09T13:17:32.208Z,9.77
2023-04-09T13:19:59.356Z,10.68
2023-04-09T13:22:26.528Z,10.18
2023-04-09T13:24:53.531Z,11.32
2023-04-09T13:27:20.833Z,9.15
2023-04-09T13:29:47.847Z,13.18
2023-04-09T13:32:14.800Z,10.32
2023-04-09T13:34:41.873Z,9.90
2023-04-09T13:37:09.102Z,10.73
2023-04-09T13:39:36.211Z,7.97
2023-04-09T13:42:12.728Z,9.48
2023-04-09T13:44:42.385Z,11.52
2023-04-09T13:47:11.273Z,8.95
2023-04-09T13:49:42.164Z,9.68
2023-04-09T13:52:10.640Z,9.07
2023-04-09T13:54:37.949Z,7.93
2023-04-09T13:57:04.932Z,6.82
2023-04-09T13:59:32.164Z,11.55
2023-04-09T14:01:59.314Z,12.80
2023-04-09T14:04:26.699Z,7.78
2023-04-09T14:06:54.042Z,7.30
2023-04-09T14:09:21.104Z,7.00
2023-04-09T14:11:49.680Z,10.02
2023-04-09T14:14:17.666Z,7.45
2023-04-09T14:16:45.121Z,7.68
2023-04-09T14:19:12.041Z,7.32
2023-04-09T14:21:41.165Z,7.35
2023-04-09T14:24:08.152Z,6.65
2023-04-09T14:26:35.104Z,8.52
2023-04-09T14:29:02.095Z,8.30
2023-04-09T14:31:30.452Z,6.43
2023-04-09T14:33:57.540Z,7.07
2023-04-09T14:36:25.124Z,6.00
2023-04-09T14:38:53.380Z,6.65
2023-04-09T14:41:21.705Z,5.03
2023-04-09T14:43:48.622Z,6.00
2023-04-09T14:46:15.748Z,7.15
2023-04-09T14:48:42.752Z,8.27
2023-04-09T14:51:11.032Z,5.47
2023-04-09T14:53:38.574Z,7.65
2023-04-09T14:56:05.964Z,5.47
2023-04-09T14:58:32.894Z,6.63
2023-04-09T15:00:59.898Z,9.20
2023-04-09T15:03:27.530Z,11.50
2023-04-09T15:05:54.719Z,8.95
2023-04-09T15:08:22.705Z,7.57
2023-04-09T15:10:49.760Z,6.65
2023-04-09T15:13:16.721Z,7.32
2023-04-09T15:15:46.607Z,6.60
2023-04-09T15:18:13.558Z,10.88
2023-04-09T15:20:40.757Z,6.57
2023-04-09T15:23:07.863Z,5.65
2023-04-09T15:25:34.903Z,8.38
2023-04-09T15:28:03.198Z,10.18
2023-04-09T15:30:30.676Z,7.80
2023-04-09T15:32:58.082Z,9.00
2023-04-09T15:35:26.670Z,7.75
2023-04-09T15:37:53.734Z,6.30
2023-04-09T15:40:20.675Z,8.45
2023-04-09T15:42:47.607Z,11.13
2023-04-09T15:45:18.140Z,9.35
2023-04-09T15:47:46.220Z,5.32
2023-04-09T15:50:14.467Z,6.20
2023-04-09T15:52:41.756Z,9.90
2023-04-09T15:55:09.206Z,5.57
2023-04-09T15:57:36.476Z,6.78
2023-04-09T16:00:03.654Z,6.28
2023-04-09T16:02:31.667Z,7.32
2023-04-09T16:04:58.862Z,6.28
2023-04-09T16:07:26.695Z,5.60
2023-04-09T16:09:53.668Z,10.75
2023-04-09T16:12:20.664Z,7.72
2023-04-09T16:14:47.584Z,8.27
2023-04-09T16:17:14.542Z,11.98
2023-04-09T16:19:43.264Z,8.88
2023-04-09T16:22:10.427Z,8.93
2023-04-09T16:24:37.517Z,9.68
2023-04-09T16:27:04.569Z,11.50
2023-04-09T16:29:31.522Z,6.43
2023-04-09T16:31:58.495Z,5.63
2023-04-09T16:34:25.661Z,6.75
2023-04-09T16:36:53.678Z,7.68
2023-04-09T16:39:20.794Z,7.18
2023-04-09T16:41:47.788Z,8.75
2023-04-09T16:44:14.885Z,8.43
2023-04-09T16:46:42.865Z,5.32
2023-04-09T16:49:10.082Z,5.68
2023-04-09T16:51:38.509Z,4.70
2023-04-09T16:54:05.598Z,9.43
2023-04-09T16:56:32.937Z,7.45
2023-04-09T16:59:00.259Z,5.63
2023-04-09T17:01:27.925Z,7.78
2023-04-09T17:03:56.430Z,5.00
2023-04-09T17:06:23.482Z,7.43
2023-04-09T17:08:50.983Z,6.57
2023-04-09T17:11:21.096Z,6.13
2023-04-09T17:13:48.002Z,7.28
2023-04-09T17:16:15.546Z,4.93
2023-04-09T17:18:42.513Z,5.03
2023-04-09T17:21:09.514Z,6.53
2023-04-09T17:23:37.847Z,10.48
2023-04-09T17:26:04.976Z,7.60
2023-04-09T17:28:32.064Z,5.28
2023-04-09T17:30:59.172Z,7.90
2023-04-09T17:33:26.417Z,7.32
2023-04-09T17:35:53.596Z,8.40
2023-04-09T17:38:21.620Z,4.80
2023-04-09T17:40:48.734Z,7.68
2023-04-09T17:43:15.754Z,4.70
2023-04-09T17:45:42.803Z,3.83
2023-04-09T17:48:09.821Z,5.90
2023-04-09T17:50:39.654Z,3.35
2023-04-09T17:53:06.687Z,5.05
2023-04-09T17:55:34.901Z,5.68
2023-04-09T17:58:03.129Z,4.25
2023-04-09T18:00:30.050Z,4.75
2023-04-09T18:02:57.911Z,6.40
2023-04-09T18:05:26.062Z,4.47
2023-04-09T18:07:54.913Z,4.68
2023-04-09T18:10:22.567Z,6.35
2023-04-09T18:12:49.705Z,4.28
2023-04-09T18:15:18.703Z,7.05
2023-04-09T18:17:46.276Z,5.45
2023-04-09T18:20:15.375Z,4.88
2023-04-09T18:22:43.192Z,4.78
2023-04-09T18:25:10.458Z,3.75
2023-04-09T18:27:38.184Z,4.38
2023-04-09T18:30:05.716Z,5.15
2023-04-09T18:32:32.933Z,7.60
2023-04-09T18:34:59.925Z,6.78
2023-04-09T18:37:27.781Z,7.30
2023-04-09T18:39:54.754Z,6.43
2023-04-09T18:42:21.713Z,3.92
2023-04-09T18:44:49.302Z,6.50
2023-04-09T18:47:16.586Z,9.43
2023-04-09T18:49:43.926Z,6.93
2023-04-09T18:52:11.350Z,6.82
2023-04-09T18:54:38.952Z,6.47
2023-04-09T18:57:06.552Z,5.55
2023-04-09T18:59:34.975Z,6.43
2023-04-09T19:02:06.014Z,8.20
2023-04-09T19:04:39.830Z,6.47
2023-04-09T19:07:07.557Z,5.47
2023-04-09T19:09:34.840Z,7.15
2023-04-09T19:12:02.003Z,5.32
2023-04-09T19:14:29.142Z,10.85
2023-04-09T19:16:57.131Z,10.07
2023-04-09T19:19:24.190Z,10.45
2023-04-09T19:21:51.267Z,7.65
2023-04-09T19:24:18.372Z,9.60
2023-04-09T19:26:45.386Z,12.77
2023-04-09T19:29:12.917Z,11.85
2023-04-09T19:31:40.155Z,8.15
2023-04-09T19:34:07.341Z,9.23
2023-04-09T19:36:35.696Z,6.22
2023-04-09T19:39:03.359Z,10.10
2023-04-09T19:41:30.716Z,8.82
2023-04-09T19:43:57.769Z,8.27
2023-04-09T19:46:24.716Z,8.88
2023-04-09T19:48:51.960Z,8.45
2023-04-09T19:51:20.347Z,7.00
2023-04-09T19:53:48.034Z,9.75
2023-04-09T19:56:16.105Z,6.75
2023-04-09T19:58:44.362Z,6.50
2023-04-09T20:01:11.444Z,6.75
2023-04-09T20:03:38.733Z,6.88
2023-04-09T20:06:10.494Z,10.30
2023-04-09T20:08:38.253Z,7.30
2023-04-09T20:11:06.051Z,7.00
2023-04-09T20:13:33.295Z,7.55
2023-04-09T20:16:00.780Z,7.60
2023-04-09T20:18:28.637Z,9.40
2023-04-09T20:20:55.707Z,10.68
2023-04-09T20:23:22.971Z,8.43
2023-04-09T20:25:55.190Z,7.88
2023-04-09T20:28:23.030Z,11.27
2023-04-09T20:30:50.609Z,7.65
2023-04-09T20:33:20.812Z,7.18
2023-04-09T20:35:48.354Z,8.52
2023-04-09T20:38:15.566Z,6.72
2023-04-09T20:40:42.590Z,7.30
2023-04-09T20:43:09.674Z,6.38
2023-04-09T20:45:36.747Z,8.15
2023-04-09T20:48:03.820Z,5.80
2023-04-09T20:50:31.217Z,8.35
2023-04-09T20:52:58.856Z,8.30
2023-04-09T20:55:26.362Z,8.25
2023-04-09T20:57:55.533Z,6.03
2023-04-09T21:00:22.861Z,8.48
2023-04-09T21:02:50.036Z,8.13
2023-04-09T21:05:23.460Z,11.48
2023-04-09T21:07:52.395Z,7.28
2023-04-09T21:10:20.093Z,7.50
2023-04-09T21:12:47.043Z,6.65
2023-04-09T21:15:14.122Z,7.65
2023-04-09T21:17:41.112Z,11.50
2023-04-09T21:20:08.846Z,6.88
2023-04-09T21:22:36.109Z,6.10
2023-04-09T21:25:03.624Z,7.40
2023-04-09T21:27:31.228Z,12.10
2023-04-09T21:29:58.193Z,11.27
2023-04-09T21:32:25.718Z,7.10
2023-04-09T21:34:52.734Z,7.90
2023-04-09T21:37:19.826Z,11.75
2023-04-09T21:39:48.736Z,9.10
2023-04-09T21:42:15.938Z,6.68
2023-04-09T21:44:42.866Z,7.63
2023-04-09T21:47:09.787Z,8.70
2023-04-09T21:49:40.184Z,7.10
2023-04-09T21:52:13.986Z,9.38
2023-04-09T21:54:42.385Z,8.50
2023-04-09T21:57:10.033Z,7.55
2023-04-09T21:59:37.632Z,8.18
2023-04-09T22:02:05.770Z,10.30
2023-04-09T22:04:35.191Z,7.30
2023-04-09T22:07:02.664Z,7.88
2023-04-09T22:09:30.971Z,9.65
2023-04-09T22:11:58.734Z,10.85
2023-04-09T22:14:29.747Z,14.05
2023-04-09T22:16:58.328Z,11.30
2023-04-09T22:19:26.136Z,9.90
2023-04-09T22:21:53.531Z,11.30
2023-04-09T22:24:26.724Z,10.93
2023-04-09T22:26:54.137Z,10.82
2023-04-09T22:29:21.150Z,9.55
2023-04-09T22:31:48.081Z,11.13
2023-04-09T22:34:21.232Z,9.80
2023-04-09T22:36:49.122Z,8.80
2023-04-09T22:39:16.130Z,11.25
2023-04-09T22:41:43.318Z,9.95
2023-04-09T22:44:10.557Z,8.95
2023-04-09T22:46:37.636Z,9.93
2023-04-09T22:49:06.154Z,7.80
2023-04-09T22:51:36.307Z,9.98
2023-04-09T22:54:03.447Z,9.48
2023-04-09T22:56:31.861Z,8.63
2023-04-09T22:58:59.051Z,8.65
2023-04-09T23:01:27.095Z,10.50
2023-04-09T23:03:54.762Z,9.70
2023-04-09T23:06:22.840Z,9.35
2023-04-09T23:08:50.595Z,9.13
2023-04-09T23:11:17.623Z,8.25
2023-04-09T23:13:44.693Z,10.60
2023-04-09T23:16:11.978Z,9.32
2023-04-09T23:18:39.213Z,9.32
2023-04-09T23:21:07.323Z,16.00
2023-04-09T23:23:35.089Z,8.00
2023-04-09T23:26:02.428Z,8.10
2023-04-09T23:28:31.446Z,8.20
2023-04-09T23:30:58.518Z,7.72
2023-04-09T23:33:26.016Z,7.70
2023-04-09T23:35:53.177Z,9.10
2023-04-09T23:38:20.245Z,9.40
2023-04-09T23:40:49.028Z,7.47
2023-04-09T23:43:16.129Z,7.32
2023-04-09T23:45:44.094Z,10.23
2023-04-09T23:48:12.398Z,9.77
2023-04-09T23:50:40.862Z,8.80
2023-04-09T23:53:07.984Z,8.68
2023-04-09T23:55:38.474Z,7.32
2023-04-09T23:58:05.586Z,6.32
